AirNav   Pilot Hours Calculator
 
 1473 users online  

3T2 Wolfe Air Park
Manvel, Texas, USA

GOING TO MANVEL?


FAA INFORMATION EFFECTIVE 25 FEBRUARY 2021

Location

FAA Identifier: 3T2
Lat/Long: 29-28-44.7000N 095-19-35.6000W
29-28.745000N 095-19.593333W
29.4790833,-95.3265556
(estimated)
Elevation: 55 ft. / 17 m (estimated)
Variation: 06E (1985)
From city: 2 miles NE of MANVEL, TX
Time zone: UTC -6 (UTC -5 during Daylight Saving Time)
Zip code: 77578

Airport Operations

Airport use: Open to the public
Activation date: 01/1981
Control tower: no
ARTCC: HOUSTON CENTER
FSS: MONTGOMERY COUNTY FLIGHT SERVICE STATION
NOTAMs facility: CXO (NOTAM-D service available)
Attendance: DAYLIGHT HOURS
Wind indicator: yes
Segmented circle: no
Lights: SS-SR

Airport Communications

CTAF: 122.9
WX ASOS at LVJ (5 nm NE): 118.525 (281-992-1853)
WX AWOS-3 at AXH (8 nm W): 123.625 (281-431-6572)
WX ASOS at HOU (10 nm N): PHONE 713-847-1462
WX AWOS-3 at EFD (12 nm NE): 135.575 (713-847-4430)
WX AWOS-3PT at T41 (18 nm NE): 120.275 (281-471-2206)
WX ASOS at SGR (19 nm NW): 118.125 (281-242-7605)

Nearby radio navigation aids

VOR radial/distance  VOR name  Freq  Var
VUHr292/27.1SCHOLES VOR/DME113.0006E
IAHr173/28.7HUMBLE VORTAC116.6005E
MHFr255/30.5TRINITY VOR/DME113.6007E

Airport Services

Parking: hangars and tiedowns
Airframe service: MAJOR
Powerplant service: MAJOR

Runway Information

Runway 2/20

Dimensions: 2910 x 80 ft. / 887 x 24 m
Surface: turf, in good condition
Runway edge lights: non-standard
SOLAR LGTS.
RUNWAY 2  RUNWAY 20
Latitude: 29-28.529022N29-28.961888N
Longitude: 095-19.711895W095-19.474193W
Elevation: 54.0 ft.53.0 ft.
Traffic pattern: leftleft
Runway heading: 020 magnetic, 026 true200 magnetic, 206 true
Obstructions: 40 ft. trees, 290 ft. from runway, 40 ft. right of centerline, 7:1 slope to clear15 ft. road, 50 ft. from runway, 125 ft. left of centerline, 3:1 slope to clear

Airport Ownership and Management from official FAA records

Ownership: Privately-owned
Owner: WOLFE AIRPARK CIVIC CLUB INC
PO BOX 941
MANVEL, TX 77578
Phone 832-423-9982
Manager: KRISTOFOR GIBER
8802 BELCHER
MANVEL, TX 77578
Phone 915-449-9100

Airport Operational Statistics

Aircraft based on the field: 77
Single engine airplanes: 74
Multi engine airplanes: 2
Helicopters: 1
    
Aircraft operations: avg 44/day *
80% local general aviation
20% transient general aviation
* for 12-month period ending 25 April 2020

Additional Remarks

DITCH XNG RWY 20 THR.
FIRST 400 FT OF EACH END OF RWY UNUSBL WHEN WET.
FOR CD CTC HOUSTON APCH AT 281-443-5844 TO CNL IFR CALL 281-443-5888.
NO TSNT TGLS.

Instrument Procedures

There are no published instrument procedures at 3T2.

Some nearby airports with instrument procedures:

KLVJ - Pearland Regional Airport (5 nm NE)
KAXH - Houston Southwest Airport (8 nm W)
KHOU - William P Hobby Airport (10 nm N)
KEFD - Ellington Airport (12 nm NE)
T41 - La Porte Municipal Airport (18 nm NE)
KSGR - Sugar Land Regional Airport (19 nm NW)
 
Loc | Ops | Rwys | IFR | FBO | Links
Com | Nav | Svcs | Stats | Notes
Area around 3T2 (Wolfe Air Park)
 
Road maps at: MapQuest Bing Google
 
Aerial photo
WARNING: Photo may not be current or correct
Aerial photo of 3T2 (Wolfe Air Park)
Photo by Bryan Jones
Photo taken 30-Oct-2018
looking northeast.

Do you have a better or more recent aerial photo of Wolfe Air Park that you would like to share? If so, please send us your photo.

 
Sectional chart

 
Airport distance calculator
Flying to Wolfe Air Park? Find the distance to fly.

From to 3T2

Sunrise and sunset
Times for 08-Mar-2021
 Local
(UTC-6)
 Zulu
(UTC)
Morning civil twilight06:1612:16
Sunrise06:4012:40
Sunset18:2400:24
Evening civil twilight18:4800:48

Current date and time
Zulu (UTC)  08-Mar-2021 15:46:12
Local (UTC-6)  08-Mar-2021 09:46:12
 
METAR
KLVJ 
5nm NE 
081453Z AUTO 10009KT 9SM CLR 16/11 A3046 RMK AO2 SLP315 T01610111 51016
KAXH 
8nm W 
081535Z AUTO 11006KT 10SM CLR 18/12 A3047 RMK AO2 T01780115
KHOU 
10nm N 
081453Z 10007KT 10SM CLR 16/09 A3045 RMK AO2 SLP316 T01560089 51018
KEFD 
11nm NE 
081450Z 08007KT 10SM CLR 14/11 A3045
KT41 
18nm NE 
081535Z AUTO 10009KT 10SM CLR 17/10 A3048 RMK AO2 T01670100
KSGR 
19nm NW 
081453Z 09008KT 10SM CLR 16/10 A3045 RMK AO2 SLP311 T01610100 51017
TAF
KHOU 
10nm N 
081123Z 0812/0912 VRB03KT P6SM SKC FM081500 11007KT P6SM FEW250 FM081900 13012G20KT P6SM FEW250 FM090200 13007KT P6SM SCT250
KEFD 
11nm NE 
081200Z 0812/0918 11006KT 9999 SKC QNH3035INS BECMG 0815/0816 12010G15KT 9999 FEW040 QNH3034INS BECMG 0902/0903 15009KT 9999 FEW020 BKN040 QNH3035INS TX20/0819Z TN06/0911Z
KSGR 
19nm NW 
081123Z 0812/0912 VRB03KT P6SM SKC FM081400 10005KT P6SM SKC FM081500 13010G18KT P6SM FEW250 FM090300 13005KT P6SM SCT250
NOTAMs
Click for the latest NOTAMs
NOTAMs are issued by the DoD/FAA and will open in a separate window not controlled by AirNav.

 

 
 

Would you like to see your business listed on this page?

 If your business provides an interesting product or service to pilots, flight crews, aircraft, or users of the Wolfe Air Park, you should consider listing it here.  To start the listing process, click on the button below
 
Add a business
 

Other Pages about Wolfe Air Park

Update a link
 
Copyright © AirNav, LLC. All rights reserved. Privacy Policy  Contact